Time;durP1;ratioP1;P1;durP2;ratioP2;P2;SDS_P1;SDS_P2;PMS_P1;PMS_P2;Temp;Humidity;BMP_temperature;BMP_pressure;BME280_temperature;BME280_humidity;BME280_pressure;Samples;Min_cycle;Max_cycle;Signal;HPM_P1;HPM_P2
2023/03/11 00:00:36;;;;;;;1999.90;999.90;;;1.70;99.90;;;;;;5034462;28;20223;-66
2023/03/11 00:03:03;;;;;;;1999.90;999.90;;;1.80;99.90;;;;;;5034254;28;20191;-66
2023/03/11 00:05:37;;;;;;;1999.90;999.90;;;1.60;99.90;;;;;;5048802;23;20219;-71
2023/03/11 00:08:04;;;;;;;1999.90;999.90;;;1.70;99.90;;;;;;5034266;28;20169;-71
2023/03/11 00:10:32;;;;;;;1999.90;999.90;;;1.70;99.90;;;;;;5034342;28;20176;-71
2023/03/11 00:12:59;;;;;;;1999.90;999.90;;;1.70;99.90;;;;;;5034098;28;20219;-71
2023/03/11 00:15:26;;;;;;;1999.90;999.90;;;1.80;99.90;;;;;;5034033;28;20210;-71
2023/03/11 00:17:51;;;;;;;1999.90;999.90;;;1.70;99.90;;;;;;5034094;28;20168;-71
2023/03/11 00:20:29;;;;;;;1999.90;999.90;;;1.70;99.90;;;;;;5034107;28;20253;-70
2023/03/11 00:22:55;;;;;;;1999.90;999.90;;;1.70;99.90;;;;;;5033989;28;20187;-71
2023/03/11 00:25:23;;;;;;;1999.90;999.90;;;1.90;99.90;;;;;;5034097;28;20211;-72
2023/03/11 00:27:49;;;;;;;1999.90;999.90;;;1.70;99.90;;;;;;5033909;28;20175;-71
2023/03/11 00:30:16;;;;;;;1999.90;999.90;;;1.80;99.90;;;;;;5033908;28;20177;-71
2023/03/11 00:32:41;;;;;;;1999.90;999.90;;;1.80;99.90;;;;;;5033733;28;20552;-71
2023/03/11 00:35:10;;;;;;;1999.90;999.90;;;1.80;99.90;;;;;;5033884;28;20177;-71
2023/03/11 00:37:36;;;;;;;1999.90;999.90;;;1.80;99.90;;;;;;5033703;28;20169;-71
2023/03/11 00:40:07;;;;;;;1999.90;999.90;;;1.80;99.90;;;;;;5033718;28;20215;-71
2023/03/11 00:42:33;;;;;;;1999.90;999.90;;;2.00;99.90;;;;;;5033565;28;20545;-71
2023/03/11 00:44:58;;;;;;;1999.90;999.90;;;1.80;99.90;;;;;;5033715;28;20168;-71
2023/03/11 00:47:24;;;;;;;1999.90;999.90;;;3.80;99.90;;;;;;5033468;28;20187;-71
2023/03/11 00:49:49;;;;;;;1999.90;999.90;;;1.80;99.90;;;;;;5033596;28;20200;-71
2023/03/11 00:52:15;;;;;;;1999.90;999.90;;;1.80;99.90;;;;;;5032428;28;20179;-71
2023/03/11 00:54:40;;;;;;;1999.90;999.90;;;1.80;99.90;;;;;;5033455;28;20169;-71
2023/03/11 00:57:06;;;;;;;1999.90;999.90;;;2.20;99.90;;;;;;5033173;28;20678;-71
2023/03/11 00:59:33;;;;;;;1999.90;999.90;;;1.90;99.90;;;;;;5032994;28;20199;-71
2023/03/11 01:01:59;;;;;;;1999.90;999.90;;;1.90;99.90;;;;;;5033377;28;20177;-71
2023/03/11 01:04:25;;;;;;;1999.90;999.90;;;1.80;99.90;;;;;;5033310;28;20177;-71
2023/03/11 01:06:50;;;;;;;1999.90;999.90;;;1.80;99.90;;;;;;5032994;28;20274;-71
2023/03/11 01:09:16;;;;;;;1999.90;999.90;;;1.80;99.90;;;;;;5033286;28;20172;-71
2023/03/11 01:11:41;;;;;;;1999.90;999.90;;;1.80;99.90;;;;;;5032947;28;20195;-71
2023/03/11 01:14:07;;;;;;;1999.90;999.90;;;2.70;99.90;;;;;;5033126;28;20177;-71
2023/03/11 01:16:33;;;;;;;1999.90;999.90;;;1.80;99.90;;;;;;5033072;28;20683;-71
2023/03/11 01:18:58;;;;;;;1999.90;999.90;;;1.70;99.90;;;;;;5033030;28;20453;-71
2023/03/11 01:21:24;;;;;;;1999.90;999.90;;;1.70;99.90;;;;;;5033016;28;20195;-71
2023/03/11 01:23:49;;;;;;;1999.90;999.90;;;1.60;99.90;;;;;;5032782;28;20203;-71
2023/03/11 01:26:15;;;;;;;1999.90;999.90;;;1.60;99.90;;;;;;5032758;28;20609;-71
2023/03/11 01:28:41;;;;;;;1999.90;999.90;;;1.60;99.90;;;;;;5032830;28;20238;-71
2023/03/11 01:31:08;;;;;;;1999.90;999.90;;;1.50;99.90;;;;;;5032848;28;20521;-71
2023/03/11 01:33:34;;;;;;;1999.90;999.90;;;1.50;99.90;;;;;;5032646;28;20577;-71
2023/03/11 01:35:59;;;;;;;1999.90;999.90;;;1.50;99.90;;;;;;5032674;28;20219;-71
2023/03/11 01:38:25;;;;;;;1999.90;999.90;;;1.40;99.90;;;;;;5032647;28;20250;-71
2023/03/11 01:40:51;;;;;;;1999.90;999.90;;;1.40;99.90;;;;;;5032670;28;20255;-71
2023/03/11 01:43:35;;;;;;;1999.90;999.90;;;1.40;99.90;;;;;;5032381;28;20232;-71
2023/03/11 01:46:01;;;;;;;1999.90;999.90;;;1.30;99.90;;;;;;5032401;28;20446;-71
2023/03/11 01:48:28;;;;;;;1999.90;999.90;;;1.30;99.90;;;;;;5032656;28;20191;-71
2023/03/11 01:50:53;;;;;;;1999.90;999.90;;;1.20;99.90;;;;;;5032467;28;20196;-71
2023/03/11 01:53:20;;;;;;;1999.90;999.90;;;1.20;99.90;;;;;;5032251;28;20184;-71
2023/03/11 01:55:47;;;;;;;1999.90;999.90;;;1.20;99.90;;;;;;5032302;28;20545;-71
2023/03/11 01:58:21;;;;;;;1999.90;999.90;;;1.20;99.90;;;;;;5032357;28;20602;-71
2023/03/11 02:00:47;;;;;;;1999.90;999.90;;;1.20;99.90;;;;;;5032381;28;20176;-71
2023/03/11 02:03:33;;;;;;;1999.90;999.90;;;1.10;99.90;;;;;;5031940;28;20222;-71
2023/03/11 02:06:05;;;;;;;1999.90;999.90;;;1.10;99.90;;;;;;5031913;28;20604;-71
2023/03/11 02:08:33;;;;;;;1999.90;999.90;;;1.10;99.90;;;;;;5032346;28;20221;-71
2023/03/11 02:11:01;;;;;;;1999.90;999.90;;;1.10;99.90;;;;;;5032242;28;20259;-71
2023/03/11 02:13:28;;;;;;;1999.90;999.90;;;1.10;99.90;;;;;;5031915;28;20179;-71
2023/03/11 02:15:53;;;;;;;1999.90;999.90;;;1.20;99.90;;;;;;5031956;28;20196;-71
2023/03/11 02:18:20;;;;;;;1999.90;999.90;;;1.20;99.90;;;;;;5032017;28;20268;-71
2023/03/11 02:21:15;;;;;;;1999.90;999.90;;;1.20;99.90;;;;;;5032284;28;20179;-70
2023/03/11 02:23:51;;;;;;;1999.90;999.90;;;1.30;99.90;;;;;;5022687;28;20184;-70
2023/03/11 02:26:26;;;;;;;1999.90;999.90;;;1.30;99.90;;;;;;5031863;28;20192;-70
2023/03/11 02:28:53;;;;;;;1999.90;999.90;;;1.20;99.90;;;;;;5031942;28;20213;-70
2023/03/11 02:31:20;;;;;;;1999.90;999.90;;;1.20;99.90;;;;;;5031961;28;20212;-70
2023/03/11 02:33:49;;;;;;;1999.90;999.90;;;1.20;99.90;;;;;;5031904;28;20176;-70
2023/03/11 02:36:37;;;;;;;1999.90;999.90;;;1.20;99.90;;;;;;5031792;28;20200;-70
2023/03/11 02:39:04;;;;;;;1999.90;999.90;;;1.10;99.90;;;;;;5031808;28;20204;-70
2023/03/11 02:41:31;;;;;;;1999.90;999.90;;;1.10;99.90;;;;;;5031816;28;20172;-70
2023/03/11 02:43:58;;;;;;;1999.90;999.90;;;1.10;99.90;;;;;;5032038;28;20199;-70
2023/03/11 02:46:25;;;;;;;1999.90;999.90;;;1.10;99.90;;;;;;5031824;28;20565;-70
2023/03/11 02:48:51;;;;;;;1999.90;999.90;;;1.10;99.90;;;;;;5031840;28;20239;-70
2023/03/11 02:51:17;;;;;;;1999.90;999.90;;;1.10;99.90;;;;;;5031775;28;20551;-70
2023/03/11 02:53:56;;;;;;;1999.90;999.90;;;1.00;99.90;;;;;;5031521;28;20177;-70
2023/03/11 02:56:22;;;;;;;1999.90;999.90;;;0.90;99.90;;;;;;5031579;28;20226;-70
2023/03/11 02:58:48;;;;;;;1999.90;999.90;;;1.00;99.90;;;;;;5031756;28;20239;-70
2023/03/11 03:01:13;;;;;;;1999.90;999.90;;;1.00;99.90;;;;;;5031785;28;20175;-70
2023/03/11 03:03:39;;;;;;;1999.90;999.90;;;0.90;99.90;;;;;;5031514;28;20516;-70
2023/03/11 03:06:05;;;;;;;1999.90;999.90;;;0.90;99.90;;;;;;5031323;28;20200;-70
2023/03/11 03:08:30;;;;;;;1999.90;999.90;;;1.00;99.90;;;;;;5031651;28;20165;-70
2023/03/11 03:10:58;;;;;;;1999.90;999.90;;;0.90;99.90;;;;;;5031593;28;20675;-70
2023/03/11 03:13:24;;;;;;;1999.90;999.90;;;0.90;99.90;;;;;;5031381;28;20414;-70
2023/03/11 03:15:50;;;;;;;1999.90;999.90;;;0.90;99.90;;;;;;5034774;28;20196;-70
2023/03/11 03:18:15;;;;;;;1999.90;999.90;;;0.90;99.90;;;;;;5035250;28;20255;-70
2023/03/11 03:20:41;;;;;;;1999.90;999.90;;;0.90;99.90;;;;;;5035305;28;20582;-70
2023/03/11 03:23:07;;;;;;;1999.90;999.90;;;0.80;99.90;;;;;;5035131;28;20251;-70
2023/03/11 03:25:32;;;;;;;1999.90;999.90;;;0.80;99.90;;;;;;5035376;28;20189;-70
2023/03/11 03:27:58;;;;;;;1999.90;999.90;;;0.70;99.90;;;;;;5035141;28;20165;-70
2023/03/11 03:30:24;;;;;;;1999.90;999.90;;;0.70;99.90;;;;;;5035288;28;20179;-70
2023/03/11 03:32:49;;;;;;;1999.90;999.90;;;0.70;99.90;;;;;;5035077;28;20251;-71
2023/03/11 03:35:15;;;;;;;1999.90;999.90;;;0.70;99.90;;;;;;5035053;28;20185;-70
2023/03/11 03:37:40;;;;;;;1999.90;999.90;;;0.70;99.90;;;;;;5034911;28;20195;-70
2023/03/11 03:40:08;;;;;;;1999.90;999.90;;;0.70;99.90;;;;;;5034934;28;20203;-70
2023/03/11 03:42:35;;;;;;;1999.90;999.90;;;0.60;99.90;;;;;;5034809;28;20252;-70
2023/03/11 03:45:01;;;;;;;1999.90;999.90;;;0.50;99.90;;;;;;5034835;28;20263;-70
2023/03/11 03:47:26;;;;;;;1999.90;999.90;;;0.50;99.90;;;;;;5034743;28;20283;-70
2023/03/11 03:49:52;;;;;;;1999.90;999.90;;;0.50;99.90;;;;;;5034650;28;20422;-70
2023/03/11 03:52:18;;;;;;;1999.90;999.90;;;0.50;99.90;;;;;;5034632;28;20234;-70
2023/03/11 03:54:43;;;;;;;1999.90;999.90;;;0.50;99.90;;;;;;5034644;28;20255;-70
2023/03/11 03:57:09;;;;;;;1999.90;999.90;;;0.50;99.90;;;;;;5034467;28;20660;-70
2023/03/11 03:59:35;;;;;;;1999.90;999.90;;;0.40;99.90;;;;;;5034711;28;20239;-70
2023/03/11 04:02:00;;;;;;;1999.90;999.90;;;0.50;99.90;;;;;;5034346;28;20169;-70
2023/03/11 04:04:26;;;;;;;1999.90;999.90;;;0.50;99.90;;;;;;5034504;28;20438;-70
2023/03/11 04:06:52;;;;;;;1999.90;999.90;;;0.50;99.90;;;;;;5034255;28;20212;-70
2023/03/11 04:09:18;;;;;;;1999.90;999.90;;;0.40;99.90;;;;;;5034438;28;20230;-70
2023/03/11 04:11:43;;;;;;;1999.90;999.90;;;0.40;99.90;;;;;;5034220;28;20180;-70
2023/03/11 04:14:09;;;;;;;1999.90;999.90;;;0.40;99.90;;;;;;5034303;28;20219;-70
2023/03/11 04:16:35;;;;;;;1999.90;999.90;;;0.40;99.90;;;;;;5034168;28;20200;-70
2023/03/11 04:19:00;;;;;;;1999.90;999.90;;;0.40;99.90;;;;;;5034162;28;20187;-70
2023/03/11 04:21:26;;;;;;;1999.90;999.90;;;0.30;99.90;;;;;;5034140;28;20237;-70
2023/03/11 04:23:52;;;;;;;1999.90;999.90;;;0.30;99.90;;;;;;5033963;28;20528;-70
2023/03/11 04:26:17;;;;;;;1999.90;999.90;;;0.30;99.90;;;;;;5033802;28;20191;-70
2023/03/11 04:28:43;;;;;;;1999.90;999.90;;;0.40;99.90;;;;;;5034110;28;20168;-70
2023/03/11 04:31:08;;;;;;;1999.90;999.90;;;0.30;99.90;;;;;;5034057;28;20633;-70
2023/03/11 04:33:34;;;;;;;1999.90;999.90;;;0.30;99.90;;;;;;5033791;28;20629;-70
2023/03/11 04:36:04;;;;;;;1999.90;999.90;;;0.40;99.90;;;;;;5033697;28;20192;-70
2023/03/11 04:38:30;;;;;;;1999.90;999.90;;;0.30;99.90;;;;;;5033824;28;20291;-70
2023/03/11 04:41:03;;;;;;;1999.90;999.90;;;0.30;99.90;;;;;;5033809;28;20208;-70
2023/03/11 04:43:29;;;;;;;1999.90;999.90;;;0.30;99.90;;;;;;5033631;28;20192;-70
2023/03/11 04:45:54;;;;;;;1999.90;999.90;;;0.30;99.90;;;;;;5033591;28;20238;-70
2023/03/11 04:48:20;;;;;;;1999.90;999.90;;;0.40;99.90;;;;;;5033675;28;20164;-70
2023/03/11 04:50:46;;;;;;;1999.90;999.90;;;0.40;99.90;;;;;;5033668;28;20408;-70
2023/03/11 04:53:12;;;;;;;1999.90;999.90;;;0.40;99.90;;;;;;5033429;28;20168;-70
2023/03/11 04:55:37;;;;;;;1999.90;999.90;;;0.40;99.90;;;;;;5033441;28;20216;-70
2023/03/11 04:58:03;;;;;;;1999.90;999.90;;;0.40;99.90;;;;;;5033508;28;20176;-70
2023/03/11 05:00:29;;;;;;;1999.90;999.90;;;0.40;99.90;;;;;;5033379;28;20453;-70
2023/03/11 05:02:55;;;;;;;1999.90;999.90;;;0.40;99.90;;;;;;5033152;28;20634;-70
2023/03/11 05:05:20;;;;;;;1999.90;999.90;;;0.50;99.90;;;;;;5033178;28;20172;-70
2023/03/11 05:07:46;;;;;;;1999.90;999.90;;;0.40;99.90;;;;;;5033271;28;20175;-70
2023/03/11 05:10:13;;;;;;;1999.90;999.90;;;0.50;99.90;;;;;;5033181;28;20168;-70
2023/03/11 05:12:39;;;;;;;1999.90;999.90;;;0.50;99.90;;;;;;5033008;28;20233;-70
2023/03/11 05:15:05;;;;;;;1999.90;999.90;;;0.40;99.90;;;;;;5033292;28;20247;-70
2023/03/11 05:17:30;;;;;;;1999.90;999.90;;;0.50;99.90;;;;;;5032930;28;20195;-70
2023/03/11 05:19:56;;;;;;;1999.90;999.90;;;0.40;99.90;;;;;;5032957;28;20560;-70
2023/03/11 05:22:22;;;;;;;1999.90;999.90;;;0.40;99.90;;;;;;5032892;28;20286;-70
2023/03/11 05:24:48;;;;;;;1999.90;999.90;;;0.40;99.90;;;;;;5033267;28;20628;-70
2023/03/11 05:27:16;;;;;;;1999.90;999.90;;;0.40;99.90;;;;;;5032783;28;20267;-70
2023/03/11 05:29:43;;;;;;;1999.90;999.90;;;0.40;99.90;;;;;;5032929;28;20411;-70
2023/03/11 05:32:10;;;;;;;1999.90;999.90;;;0.40;99.90;;;;;;5032620;28;20203;-70
2023/03/11 05:34:35;;;;;;;1999.90;999.90;;;0.40;99.90;;;;;;5032824;28;20168;-70
2023/03/11 05:37:01;;;;;;;1999.90;999.90;;;0.40;99.90;;;;;;5032099;28;20200;-70
2023/03/11 05:39:26;;;;;;;1999.90;999.90;;;0.40;99.90;;;;;;5032581;28;20230;-70
2023/03/11 05:41:52;;;;;;;1999.90;999.90;;;0.50;99.90;;;;;;5032490;28;20175;-70
2023/03/11 05:44:18;;;;;;;1999.90;999.90;;;0.50;99.90;;;;;;5032681;28;20168;-70
2023/03/11 05:46:43;;;;;;;1999.90;999.90;;;0.60;99.90;;;;;;5032437;28;20622;-70
2023/03/11 05:49:09;;;;;;;1999.90;999.90;;;0.70;99.90;;;;;;5032523;28;20167;-71
2023/03/11 05:51:36;;;;;;;1999.90;999.90;;;0.80;99.90;;;;;;5032388;28;20172;-70
2023/03/11 05:54:02;;;;;;;1999.90;999.90;;;0.80;99.90;;;;;;5032533;28;20176;-70
2023/03/11 05:56:27;;;;;;;1999.90;999.90;;;0.90;99.90;;;;;;5032397;28;20742;-69
2023/03/11 05:58:55;;;;;;;1999.90;999.90;;;0.90;99.90;;;;;;5032352;28;20551;-71
2023/03/11 06:01:21;;;;;;;1999.90;999.90;;;0.90;99.90;;;;;;5032351;28;20175;-70
2023/03/11 06:03:46;;;;;;;1999.90;999.90;;;0.90;99.90;;;;;;5032176;28;20566;-70
2023/03/11 06:06:12;;;;;;;1999.90;999.90;;;0.90;99.90;;;;;;5032536;28;20287;-70
2023/03/11 06:08:38;;;;;;;1999.90;999.90;;;0.90;99.90;;;;;;5032319;28;20655;-70
2023/03/11 06:11:07;;;;;;;1999.90;999.90;;;1.00;99.90;;;;;;5032641;28;20403;-70
2023/03/11 06:13:33;;;;;;;1999.90;999.90;;;1.00;99.90;;;;;;5032783;28;20407;-70
2023/03/11 06:15:58;;;;;;;1999.90;999.90;;;1.10;99.90;;;;;;5032679;28;20188;-70
2023/03/11 06:18:27;;;;;;;1999.90;999.90;;;1.10;99.90;;;;;;5032856;28;20223;-70
2023/03/11 06:20:53;;;;;;;1999.90;999.90;;;1.10;99.90;;;;;;5032166;28;20164;-70
2023/03/11 06:23:19;;;;;;;1999.90;999.90;;;1.10;99.90;;;;;;5030683;28;20575;-70
2023/03/11 06:25:53;;;;;;;1999.90;999.90;;;1.20;99.90;;;;;;5031906;28;20303;-70
2023/03/11 06:28:19;;;;;;;1999.90;999.90;;;1.20;99.90;;;;;;5031970;28;20799;-70
2023/03/11 06:30:44;;;;;;;1999.90;999.90;;;1.20;99.90;;;;;;5031998;28;20177;-70
2023/03/11 06:33:10;;;;;;;1999.90;999.90;;;1.20;99.90;;;;;;5031781;28;20164;-70
2023/03/11 06:35:35;;;;;;;1999.90;999.90;;;1.20;99.90;;;;;;5031889;28;20184;-70
2023/03/11 06:38:01;;;;;;;1999.90;999.90;;;1.20;99.90;;;;;;5031801;28;20165;-71
2023/03/11 06:40:27;;;;;;;1999.90;999.90;;;1.20;99.90;;;;;;5031795;28;20559;-70
2023/03/11 06:42:52;;;;;;;1999.90;999.90;;;1.30;99.90;;;;;;5031610;28;20175;-69
2023/03/11 06:45:18;;;;;;;1999.90;999.90;;;1.30;99.90;;;;;;5032006;28;20573;-70
2023/03/11 06:47:43;;;;;;;1999.90;999.90;;;1.30;99.90;;;;;;5031776;28;20238;-70
2023/03/11 06:50:10;;;;;;;1999.90;999.90;;;1.30;99.90;;;;;;5034204;28;20552;-71
2023/03/11 06:52:36;;;;;;;1999.90;999.90;;;1.30;99.90;;;;;;5035615;28;20174;-70
2023/03/11 06:55:02;;;;;;;1999.90;999.90;;;1.30;99.90;;;;;;5035769;28;20172;-70
2023/03/11 06:57:29;;;;;;;1999.90;999.90;;;1.20;99.90;;;;;;5035467;28;20668;-70
2023/03/11 06:59:55;;;;;;;1999.90;999.90;;;1.20;99.90;;;;;;5035590;28;20673;-70
2023/03/11 07:02:21;;;;;;;1999.90;999.90;;;1.20;99.90;;;;;;5035626;28;20196;-70
2023/03/11 07:04:49;;;;;;;1999.90;999.90;;;1.20;99.90;;;;;;5035668;28;20808;-70
2023/03/11 07:07:15;;;;;;;1999.90;999.90;;;1.20;99.90;;;;;;5035239;28;20199;-70
2023/03/11 07:09:41;;;;;;;1999.90;999.90;;;1.30;99.90;;;;;;5035488;28;20185;-70
2023/03/11 07:12:07;;;;;;;1999.90;999.90;;;1.30;99.90;;;;;;5035233;28;20230;-70
2023/03/11 07:14:33;;;;;;;1999.90;999.90;;;1.30;99.90;;;;;;5035384;28;20168;-70
2023/03/11 07:16:59;;;;;;;1999.90;999.90;;;1.30;99.90;;;;;;5035384;28;20246;-70
2023/03/11 07:19:24;;;;;;;1999.90;999.90;;;1.30;99.90;;;;;;5035273;28;20243;-70
2023/03/11 07:21:50;;;;;;;1999.90;999.90;;;1.40;99.90;;;;;;5035358;28;20255;-70
2023/03/11 07:24:16;;;;;;;1999.90;999.90;;;1.40;99.90;;;;;;5035569;28;20238;-70
2023/03/11 07:26:41;;;;;;;1999.90;999.90;;;1.40;99.90;;;;;;5035705;28;20192;-70
2023/03/11 07:29:08;;;;;;;1999.90;999.90;;;1.40;99.90;;;;;;5034258;28;20184;-70
2023/03/11 07:31:35;;;;;;;1999.90;999.90;;;1.50;99.90;;;;;;5035292;28;20180;-70
2023/03/11 07:34:04;;;;;;;1999.90;999.90;;;1.60;99.90;;;;;;5035617;28;20185;-70
2023/03/11 07:36:30;;;;;;;1999.90;999.90;;;1.60;99.90;;;;;;5034954;28;20192;-70
2023/03/11 07:39:03;;;;;;;1999.90;999.90;;;1.70;99.90;;;;;;5035157;28;20270;-69
2023/03/11 07:41:33;;;;;;;1999.90;999.90;;;1.80;99.90;;;;;;5035263;28;20167;-70
2023/03/11 07:44:00;;;;;;;1999.90;999.90;;;1.90;99.90;;;;;;5035034;28;20173;-69
2023/03/11 07:46:28;;;;;;;1999.90;999.90;;;2.00;99.90;;;;;;5034667;28;20199;-69
2023/03/11 07:48:54;;;;;;;1999.90;999.90;;;2.00;99.90;;;;;;5035059;28;20708;-70
2023/03/11 07:51:29;;;;;;;1999.90;999.90;;;1.90;99.90;;;;;;5034841;28;20181;-70
2023/03/11 07:53:56;;;;;;;1999.90;999.90;;;1.90;99.90;;;;;;5034837;28;20179;-70
2023/03/11 07:56:25;;;;;;;1999.90;999.90;;;2.00;99.90;;;;;;5034890;28;20200;-70
2023/03/11 07:58:52;;;;;;;1999.90;999.90;;;2.00;99.90;;;;;;5034753;28;20196;-70
2023/03/11 08:01:23;;;;;;;1999.90;999.90;;;2.10;99.90;;;;;;5032959;28;20591;-70
2023/03/11 08:03:55;;;;;;;1999.90;999.90;;;2.20;99.90;;;;;;5034474;28;20247;-70
2023/03/11 08:06:26;;;;;;;1999.90;999.90;;;2.30;99.90;;;;;;5034336;28;20266;-71
2023/03/11 08:08:52;;;;;;;1999.90;999.90;;;2.30;99.90;;;;;;5034683;28;20676;-71
2023/03/11 08:11:19;;;;;;;1999.90;999.90;;;2.30;99.90;;;;;;5034701;28;20184;-70
2023/03/11 08:13:45;;;;;;;1999.90;999.90;;;2.50;99.90;;;;;;5034203;28;20168;-71
2023/03/11 08:16:14;;;;;;;1999.90;999.90;;;2.40;99.90;;;;;;5034102;28;20202;-71
2023/03/11 08:18:40;;;;;;;1999.90;999.90;;;2.40;99.90;;;;;;5034463;28;20196;-70
2023/03/11 08:21:12;;;;;;;1999.90;999.90;;;2.50;99.90;;;;;;5034253;28;20177;-71
2023/03/11 08:23:38;;;;;;;1999.90;999.90;;;2.50;99.90;;;;;;5034002;28;20411;-70
2023/03/11 08:26:05;;;;;;;1999.90;999.90;;;2.50;99.90;;;;;;5033990;28;20555;-70
2023/03/11 08:28:31;;;;;;;1999.90;999.90;;;2.50;99.90;;;;;;5034238;28;20415;-70
2023/03/11 08:30:57;;;;;;;1999.90;999.90;;;2.60;99.90;;;;;;5033978;28;20267;-71
2023/03/11 08:33:22;;;;;;;1999.90;999.90;;;2.70;99.90;;;;;;5033732;28;20248;-71
2023/03/11 08:35:48;;;;;;;1999.90;999.90;;;2.70;99.90;;;;;;5033855;28;20192;-70
2023/03/11 08:38:13;;;;;;;1999.90;999.90;;;2.80;99.90;;;;;;5033827;28;20172;-72
2023/03/11 08:40:39;;;;;;;1999.90;999.90;;;2.90;99.90;;;;;;5033841;28;20231;-71
2023/03/11 08:43:04;;;;;;;1999.90;999.90;;;2.90;99.90;;;;;;5033707;28;20169;-70
2023/03/11 08:45:30;;;;;;;1999.90;999.90;;;3.00;99.90;;;;;;5031854;28;20199;-71
2023/03/11 08:47:56;;;;;;;1999.90;999.90;;;3.00;99.90;;;;;;5013807;28;20173;-71
2023/03/11 08:50:21;;;;;;;1999.90;999.90;;;3.10;99.90;;;;;;5014104;28;20239;-71
2023/03/11 08:52:47;;;;;;;1999.90;999.90;;;3.20;99.90;;;;;;5012455;28;20220;-70
2023/03/11 08:55:16;;;;;;;1999.90;999.90;;;3.40;99.90;;;;;;5014001;28;20554;-70
2023/03/11 08:57:42;;;;;;;1999.90;999.90;;;3.20;99.90;;;;;;5013989;28;20203;-70
2023/03/11 09:00:09;;;;;;;1999.90;999.90;;;3.30;99.90;;;;;;5013931;28;20201;-69
2023/03/11 09:02:35;;;;;;;1999.90;999.90;;;3.40;99.90;;;;;;5013531;28;20201;-70
2023/03/11 09:05:00;;;;;;;1999.90;999.90;;;3.50;99.90;;;;;;5013878;28;20204;-70
2023/03/11 09:07:26;;;;;;;1999.90;999.90;;;3.50;99.90;;;;;;5013489;28;20208;-70
2023/03/11 09:09:53;;;;;;;1999.90;999.90;;;3.60;99.90;;;;;;5013565;28;20169;-70
2023/03/11 09:12:19;;;;;;;1999.90;999.90;;;3.40;99.90;;;;;;5012553;28;20639;-70
2023/03/11 09:14:45;;;;;;;1999.90;999.90;;;3.40;99.90;;;;;;5013853;28;20639;-70
2023/03/11 09:17:13;;;;;;;1999.90;999.90;;;3.50;99.90;;;;;;5013208;28;20438;-70
2023/03/11 09:19:40;;;;;;;1999.90;999.90;;;3.60;99.90;;;;;;5013331;28;20207;-70
2023/03/11 09:22:05;;;;;;;1999.90;999.90;;;3.60;99.90;;;;;;5013087;28;20187;-70
2023/03/11 09:24:35;;;;;;;1999.90;999.90;;;3.80;99.90;;;;;;5013236;28;20177;-71
2023/03/11 09:27:01;;;;;;;1999.90;999.90;;;3.50;99.90;;;;;;5013149;28;20573;-70
2023/03/11 09:29:27;;;;;;;1999.90;999.90;;;3.50;99.90;;;;;;5013180;28;20174;-71
2023/03/11 09:31:53;;;;;;;1999.90;999.90;;;4.80;99.90;;;;;;5012905;28;20172;-71
2023/03/11 09:34:18;;;;;;;1999.90;999.90;;;3.60;99.90;;;;;;5013123;28;20267;-70
2023/03/11 09:36:44;;;;;;;1999.90;999.90;;;3.60;99.90;;;;;;5012926;28;20431;-70
2023/03/11 09:39:10;;;;;;;1999.90;999.90;;;3.60;99.90;;;;;;5012957;28;20193;-70
2023/03/11 09:41:54;;;;;;;1999.90;999.90;;;3.70;99.90;;;;;;5012766;28;20960;-70
2023/03/11 09:44:22;;;;;;;1999.90;999.90;;;3.80;99.90;;;;;;5012887;28;20783;-70
2023/03/11 09:47:14;;;;;;;1999.90;999.90;;;3.80;99.90;;;;;;5012901;28;20963;-70
2023/03/11 09:50:03;;;;;;;1999.90;999.90;;;4.00;99.90;;;;;;5012833;28;20403;-71
2023/03/11 09:52:39;;;;;;;1999.90;999.90;;;4.10;99.90;;;;;;5012752;28;20944;-71
2023/03/11 09:55:30;;;;;;;1999.90;999.90;;;4.10;99.90;;;;;;5012745;28;20419;-70
2023/03/11 09:57:58;;;;;;;1999.90;999.90;;;4.40;99.90;;;;;;5012619;28;20209;-70
2023/03/11 10:00:24;;;;;;;1999.90;999.90;;;4.50;99.90;;;;;;5012489;28;20530;-70
2023/03/11 10:02:50;;;;;;;1999.90;999.90;;;4.60;99.90;;;;;;5012405;28;20440;-71
2023/03/11 10:05:27;;;;;;;1999.90;999.90;;;4.50;99.90;;;;;;5012592;28;20514;-71
2023/03/11 10:08:03;;;;;;;1999.90;999.90;;;4.40;99.90;;;;;;5012468;28;20169;-70
2023/03/11 10:10:38;;;;;;;1999.90;999.90;;;4.40;99.90;;;;;;5012959;28;20915;-71
2023/03/11 10:13:22;;;;;;;1999.90;999.90;;;4.60;99.90;;;;;;5012597;28;20396;-71
2023/03/11 10:16:11;;;;;;;1999.90;999.90;;;4.90;99.90;;;;;;5012641;28;20422;-71
2023/03/11 10:18:52;;;;;;;1999.90;999.90;;;5.10;99.90;;;;;;5012364;28;20404;-70
2023/03/11 10:21:33;;;;;;;1999.90;999.90;;;5.10;99.90;;;;;;5012585;28;20400;-70
2023/03/11 10:24:13;;;;;;;1999.90;999.90;;;5.30;99.90;;;;;;5012143;28;20392;-71
2023/03/11 10:26:45;;;;;;;1999.90;999.90;;;5.60;99.90;;;;;;5012144;28;20420;-70
2023/03/11 10:29:26;;;;;;;1999.90;999.90;;;5.60;99.90;;;;;;5012414;28;20406;-70
2023/03/11 10:31:57;;;;;;;1999.90;999.90;;;5.80;99.90;;;;;;5008652;28;20771;-71
2023/03/11 10:35:21;;;;;;;1999.90;999.90;;;5.90;99.90;;;;;;5011979;28;20392;-71
2023/03/11 10:38:13;;;;;;;1999.90;999.90;;;6.30;99.90;;;;;;4969369;28;20457;-70
2023/03/11 10:40:46;;;;;;;1999.90;999.90;;;6.50;98.60;;;;;;4962653;28;20488;-70
2023/03/11 10:43:40;;;;;;;1999.90;999.90;;;6.80;99.70;;;;;;5021699;28;20431;-70
2023/03/11 10:46:22;;;;;;;1999.90;999.90;;;6.50;98.10;;;;;;5030787;28;20459;-70
2023/03/11 10:48:47;;;;;;;1999.90;999.90;;;6.60;96.00;;;;;;5031457;28;20459;-71
2023/03/11 10:51:21;;;;;;;1999.90;999.90;;;7.00;96.00;;;;;;5028120;28;20431;-70
2023/03/11 10:53:56;;;;;;;1999.90;999.90;;;7.20;95.20;;;;;;5016212;28;20408;-70
2023/03/11 10:56:34;;;;;;;1999.90;999.90;;;7.20;92.10;;;;;;5007142;28;20435;-70
2023/03/11 10:59:02;;;;;;;1999.90;999.90;;;7.30;93.10;;;;;;5007269;28;20447;-70
2023/03/11 11:01:28;;;;;;;1999.90;999.90;;;7.50;89.30;;;;;;5006520;28;20848;-70
2023/03/11 11:03:56;;;;;;;1999.90;999.90;;;8.00;87.30;;;;;;5007940;28;20419;-70
2023/03/11 11:06:34;;;;;;;1999.90;999.90;;;8.00;90.20;;;;;;5007135;28;20499;-70
2023/03/11 11:09:20;;;;;;;1999.90;999.90;;;8.20;81.60;;;;;;5007052;28;20427;-71
2023/03/11 11:12:02;;;;;;;1999.90;999.90;;;7.70;80.20;;;;;;5007601;28;20416;-70
2023/03/11 11:14:49;;;;;;;1999.90;999.90;;;7.10;87.80;;;;;;5007153;28;20407;-71
2023/03/11 11:17:31;;;;;;;1999.90;999.90;;;6.80;90.00;;;;;;5005661;28;20462;-70
2023/03/11 11:19:59;;;;;;;1999.90;999.90;;;6.90;84.10;;;;;;5007020;28;21167;-70
2023/03/11 11:22:25;;;;;;;1999.90;999.90;;;7.00;84.90;;;;;;5006317;28;20423;-72
2023/03/11 11:24:53;;;;;;;1999.90;999.90;;;7.20;85.50;;;;;;5007781;28;20414;-71
2023/03/11 11:27:25;;;;;;;1999.90;999.90;;;7.30;84.60;;;;;;5006559;28;20428;-72
2023/03/11 11:30:08;;;;;;;1999.90;999.90;;;7.40;81.80;;;;;;5006324;28;20428;-72
2023/03/11 11:32:35;;;;;;;1999.90;999.90;;;7.40;83.30;;;;;;5007105;28;20447;-69
2023/03/11 11:35:14;;;;;;;1999.90;999.90;;;7.50;92.80;;;;;;5007316;28;20497;-70
2023/03/11 11:37:47;;;;;;;1999.90;999.90;;;7.00;81.50;;;;;;5009951;28;20462;-69
2023/03/11 11:40:13;;;;;;;1999.90;999.90;;;6.70;91.40;;;;;;5010368;28;20451;-69
2023/03/11 11:42:51;;;;;;;1999.90;999.90;;;6.80;90.80;;;;;;5012217;28;20423;-70
2023/03/11 11:45:35;;;;;;;1999.90;999.90;;;7.10;95.30;;;;;;5015401;28;20240;-69
2023/03/11 11:48:15;;;;;;;1999.90;999.90;;;7.40;86.60;;;;;;5014230;28;20399;-72
2023/03/11 11:51:07;;;;;;;1999.90;999.90;;;7.70;85.80;;;;;;5015248;28;20408;-73
2023/03/11 11:53:48;;;;;;;1999.90;999.90;;;7.90;77.10;;;;;;5015880;28;20420;-72
2023/03/11 11:56:14;;;;;;;1999.90;999.90;;;8.00;74.30;;;;;;5013322;28;20440;-71
2023/03/11 11:58:40;;;;;;;1999.90;999.90;;;8.30;76.70;;;;;;5010042;28;20450;-70
2023/03/11 12:01:37;;;;;;;1999.90;999.90;;;8.60;78.90;;;;;;5009517;28;20236;-71
2023/03/11 12:04:26;;;;;;;1999.90;999.90;;;8.30;80.40;;;;;;5010816;28;20438;-72
2023/03/11 12:07:01;;;;;;;1999.90;999.90;;;8.10;78.60;;;;;;5029176;23;20504;-66
2023/03/11 12:09:37;;;;;;;1999.90;999.90;;;7.80;84.00;;;;;;5050119;28;20429;-67
2023/03/11 12:12:24;;;;;;;1999.90;999.90;;;7.70;83.70;;;;;;5049260;28;20444;-66
2023/03/11 12:15:06;;;;;;;1999.90;999.90;;;7.50;86.70;;;;;;5049333;28;20498;-66
2023/03/11 12:17:36;;;;;;;1999.90;999.90;;;7.70;85.00;;;;;;5049906;28;20418;-67